Hauptseite
METAR-TAF:

METAR-TAF

Flughäfen :

Flughafen El Golea

El Golea, Algerien

Breite: 30-34N, Länge: 002-52E, Höhe: 397 m

Beobachtung

Neuester Wetterbericht von vor 21 Minuten, um 07:00 UTC
Wind 3 kt aus Nord
Temperatur 3°C
Luftfeuchtigkeit 52%
Luftdruck 1023 hPa
Sichtweite 10 km oder mehr
keine Wolken unter 1500 m und keine Kumulonimbus oder Gewitterwolken

METAR: DAUE 240700Z 35003KT CAVOK 03/M06 Q1023

Zeit: 08:21 (07:21 UTC)


TAF: fehlend

Wetterbeobachtungen und Prognosen von mehr als 4000 Flughäfen (METAR und TAF Bericht).

Die verfügbaren Stationen werden durch gelbe und rote Markierungen auf der Karte dargestellt.

Führen Sie die Maus auf sie, um den Namen der Station zu sehen.

Darauf klicken, um die Beobachtung von Wetterbeobachtungen und Prognosen zu sehen.

Um die Karte zu ändern : klicken Sie auf den grünen Tasten mit einem schwarzen Kreuz Zum Vergrößern, auf den grünen Button mit einem Gedankenstrich zu verkleinern, oder auf die grünen Pfeile für benachbarte Karten.


METAR-TAF: